Time;durP1;ratioP1;P1;durP2;ratioP2;P2;SDS_P1;SDS_P2;PMS_P1;PMS_P2;Temp;Humidity;BMP_temperature;BMP_pressure;BME280_temperature;BME280_humidity;BME280_pressure;Samples;Min_cycle;Max_cycle;Signal;HPM_P1;HPM_P2
2022/08/27 00:01:12;;;;;;;20.00;16.17;;;19.50;99.90;;;;;;5119436;28;20481;-77
2022/08/27 00:03:39;;;;;;;20.87;17.20;;;19.50;99.90;;;;;;5121485;28;20443;-78
2022/08/27 00:06:06;;;;;;;18.20;16.27;;;19.50;99.90;;;;;;5122697;28;20832;-77
2022/08/27 00:08:33;;;;;;;20.73;17.87;;;19.50;99.90;;;;;;5119336;28;20822;-78
2022/08/27 00:10:59;;;;;;;22.53;16.90;;;19.50;99.90;;;;;;5120581;28;20454;-78
2022/08/27 00:13:26;;;;;;;17.83;15.97;;;19.40;99.90;;;;;;5118303;28;20439;-78
2022/08/27 00:15:53;;;;;;;20.00;17.27;;;19.40;99.90;;;;;;5119571;28;20467;-79
2022/08/27 00:18:21;;;;;;;18.50;16.53;;;19.50;99.90;;;;;;5120191;28;20442;-78
2022/08/27 00:20:48;;;;;;;21.50;16.57;;;19.50;99.90;;;;;;5117456;28;20447;-78
2022/08/27 00:23:15;;;;;;;16.57;14.60;;;19.50;99.90;;;;;;5117305;28;21023;-78
2022/08/27 00:25:42;;;;;;;18.77;16.57;;;19.50;99.90;;;;;;5118306;28;20466;-78
2022/08/27 00:28:09;;;;;;;19.27;16.97;;;19.40;99.90;;;;;;5117890;28;20475;-78
2022/08/27 00:30:35;;;;;;;25.47;16.57;;;19.40;99.90;;;;;;5118077;28;20447;-80
2022/08/27 00:33:03;;;;;;;17.47;15.77;;;19.40;99.90;;;;;;5117437;28;20802;-79
2022/08/27 00:35:31;;;;;;;20.83;16.60;;;19.40;99.90;;;;;;5118317;28;20459;-79
2022/08/27 00:37:58;;;;;;;19.47;17.57;;;19.40;99.90;;;;;;5118614;28;20809;-81
2022/08/27 00:40:26;;;;;;;19.00;17.07;;;19.40;99.90;;;;;;5114574;28;20537;-74
2022/08/27 00:42:53;;;;;;;20.40;17.30;;;19.40;99.90;;;;;;5114260;28;20504;-74
2022/08/27 00:45:23;;;;;;;20.07;17.90;;;19.40;99.90;;;;;;5114690;28;20485;-73
2022/08/27 00:47:53;;;;;;;19.30;17.23;;;19.50;99.90;;;;;;5114396;28;21001;-74
2022/08/27 00:50:28;;;;;;;19.73;17.50;;;19.50;99.90;;;;;;5114947;28;20447;-74
2022/08/27 00:52:58;;;;;;;19.20;16.60;;;19.50;99.90;;;;;;5114948;28;20426;-74
2022/08/27 00:55:39;;;;;;;19.53;17.60;;;19.50;99.90;;;;;;5114716;28;20907;-74
2022/08/27 00:58:10;;;;;;;19.40;17.40;;;19.50;99.90;;;;;;5114708;28;20423;-73
2022/08/27 01:00:37;;;;;;;17.97;16.20;;;19.50;99.90;;;;;;5114449;28;20427;-73
2022/08/27 01:03:04;;;;;;;19.83;17.80;;;19.50;99.90;;;;;;5114342;28;20861;-74
2022/08/27 01:05:33;;;;;;;19.67;17.47;;;19.50;99.90;;;;;;5114368;28;20925;-73
2022/08/27 01:08:06;;;;;;;21.97;17.53;;;19.50;99.90;;;;;;5114274;28;20478;-74
2022/08/27 01:10:34;;;;;;;20.27;18.23;;;19.60;99.90;;;;;;5114387;28;20783;-73
2022/08/27 01:13:01;;;;;;;19.83;16.80;;;19.50;99.90;;;;;;5114225;27;20443;-73
2022/08/27 01:15:29;;;;;;;19.80;17.00;;;19.60;99.90;;;;;;5114134;28;20515;-72
2022/08/27 01:17:57;;;;;;;18.97;17.00;;;19.50;99.90;;;;;;5114081;28;20447;-72
2022/08/27 01:20:28;;;;;;;18.57;16.67;;;19.50;99.90;;;;;;5114139;28;20564;-73
2022/08/27 01:23:05;;;;;;;23.57;18.60;;;19.50;99.90;;;;;;5113888;27;20438;-73
2022/08/27 01:25:33;;;;;;;21.07;18.27;;;19.60;99.90;;;;;;5114030;28;20470;-73
2022/08/27 01:28:02;;;;;;;18.63;16.63;;;19.60;99.90;;;;;;5113642;28;21043;-73
2022/08/27 01:30:30;;;;;;;20.20;17.23;;;19.60;99.90;;;;;;5114088;28;20847;-73
2022/08/27 01:32:56;;;;;;;20.13;17.83;;;19.60;99.90;;;;;;5113999;28;20887;-73
2022/08/27 01:35:24;;;;;;;20.47;17.50;;;19.60;99.90;;;;;;5113481;28;20474;-73
2022/08/27 01:37:54;;;;;;;18.90;16.90;;;19.60;99.90;;;;;;5113587;28;20450;-73
2022/08/27 01:40:21;;;;;;;18.97;16.70;;;19.60;99.90;;;;;;5113726;28;20450;-73
2022/08/27 01:42:51;;;;;;;23.77;18.80;;;19.60;99.90;;;;;;5113365;28;20537;-73
2022/08/27 01:45:21;;;;;;;22.07;18.53;;;19.60;99.90;;;;;;5113696;28;20520;-73
2022/08/27 01:47:48;;;;;;;24.80;18.67;;;19.60;99.90;;;;;;5113657;28;20480;-73
2022/08/27 01:50:17;;;;;;;24.13;19.60;;;19.60;99.90;;;;;;5113690;28;20443;-73
2022/08/27 01:52:44;;;;;;;20.60;18.10;;;19.60;99.90;;;;;;5113732;28;20450;-73
2022/08/27 01:55:14;;;;;;;22.83;20.27;;;19.70;99.90;;;;;;5113784;28;20481;-73
2022/08/27 01:57:41;;;;;;;23.30;20.87;;;19.70;99.90;;;;;;5113343;28;20473;-73
2022/08/27 02:00:12;;;;;;;23.13;20.57;;;19.70;99.90;;;;;;5113596;28;20451;-73
2022/08/27 02:02:40;;;;;;;24.50;17.77;;;19.70;99.90;;;;;;5113570;28;20836;-74
2022/08/27 02:05:07;;;;;;;21.20;18.93;;;19.60;99.90;;;;;;5113198;27;20466;-74
2022/08/27 02:07:33;;;;;;;25.80;20.07;;;19.70;99.90;;;;;;5113893;28;20535;-74
2022/08/27 02:10:00;;;;;;;23.90;18.87;;;19.80;99.90;;;;;;5116353;28;20443;-73
2022/08/27 02:12:27;;;;;;;19.50;17.33;;;19.70;99.90;;;;;;5115973;28;20442;-73
2022/08/27 02:14:53;;;;;;;20.33;17.43;;;19.90;99.90;;;;;;5118139;28;20447;-73
2022/08/27 02:17:21;;;;;;;30.07;19.67;;;19.80;99.90;;;;;;5117815;28;20451;-73
2022/08/27 02:19:48;;;;;;;28.17;20.50;;;19.80;99.90;;;;;;5114427;28;20446;-73
2022/08/27 02:22:15;;;;;;;29.30;19.67;;;19.70;99.90;;;;;;5113768;28;20452;-73
2022/08/27 02:24:42;;;;;;;27.00;18.80;;;19.70;99.90;;;;;;5113751;28;20987;-73
2022/08/27 02:27:09;;;;;;;24.83;20.70;;;19.70;99.90;;;;;;5113209;28;20524;-73
2022/08/27 02:29:36;;;;;;;23.37;19.00;;;19.80;99.90;;;;;;5113081;28;20450;-73
2022/08/27 02:32:03;;;;;;;27.20;23.50;;;19.80;99.90;;;;;;5113412;28;20454;-73
2022/08/27 02:34:31;;;;;;;32.77;21.87;;;20.00;99.90;;;;;;5113297;28;20446;-73
2022/08/27 02:36:58;;;;;;;26.80;21.73;;;19.80;99.90;;;;;;5116671;28;20474;-73
2022/08/27 02:39:25;;;;;;;27.53;20.43;;;19.90;99.90;;;;;;5117666;28;20447;-73
2022/08/27 02:41:52;;;;;;;27.40;21.73;;;19.80;99.90;;;;;;5117791;28;20438;-74
2022/08/27 02:44:18;;;;;;;25.40;20.63;;;19.80;99.90;;;;;;5117407;28;20796;-73
2022/08/27 02:46:45;;;;;;;27.57;22.10;;;19.80;99.90;;;;;;5117156;28;20466;-73
2022/08/27 02:49:12;;;;;;;32.23;21.47;;;19.80;99.90;;;;;;5117037;28;20486;-73
2022/08/27 02:51:40;;;;;;;28.70;21.40;;;19.80;99.90;;;;;;5116785;27;20495;-73
2022/08/27 02:54:07;;;;;;;30.70;21.30;;;19.80;99.90;;;;;;5117136;27;20447;-74
2022/08/27 02:56:34;;;;;;;28.73;20.93;;;19.90;99.90;;;;;;5116621;28;20477;-73
2022/08/27 02:59:01;;;;;;;23.20;20.50;;;19.90;99.90;;;;;;5117022;28;20788;-73
2022/08/27 03:01:27;;;;;;;32.07;22.50;;;19.90;99.90;;;;;;5116843;28;20447;-73
2022/08/27 03:03:54;;;;;;;29.60;21.70;;;19.80;99.90;;;;;;5117129;28;20496;-73
2022/08/27 03:06:21;;;;;;;31.10;21.60;;;19.80;99.90;;;;;;5116618;28;20466;-74
2022/08/27 03:08:49;;;;;;;29.33;22.53;;;19.80;99.90;;;;;;5116430;27;20479;-74
2022/08/27 03:11:15;;;;;;;28.43;23.70;;;19.80;99.90;;;;;;5116747;28;20447;-73
2022/08/27 03:13:42;;;;;;;31.20;23.67;;;19.80;99.90;;;;;;5116864;28;20443;-73
2022/08/27 03:16:09;;;;;;;32.00;21.80;;;19.80;99.90;;;;;;5116652;28;20462;-73
2022/08/27 03:18:34;;;;;;;30.73;23.87;;;19.80;99.90;;;;;;5116493;28;20450;-73
2022/08/27 03:21:03;;;;;;;34.30;24.10;;;19.80;99.90;;;;;;5116559;28;20939;-73
2022/08/27 03:23:32;;;;;;;32.63;24.20;;;19.90;99.90;;;;;;5116477;28;20577;-73
2022/08/27 03:26:03;;;;;;;32.57;25.20;;;19.80;99.90;;;;;;5116407;28;20523;-73
2022/08/27 03:28:33;;;;;;;26.27;22.73;;;19.80;99.90;;;;;;5116554;28;20463;-73
2022/08/27 03:31:02;;;;;;;34.33;23.70;;;19.80;99.90;;;;;;5116261;28;20950;-73
2022/08/27 03:33:30;;;;;;;30.40;21.90;;;19.80;99.90;;;;;;5116692;28;20443;-73
2022/08/27 03:35:57;;;;;;;32.87;23.97;;;19.90;99.90;;;;;;5116242;28;20470;-73
2022/08/27 03:38:24;;;;;;;37.00;24.50;;;19.90;99.90;;;;;;5116170;28;20825;-74
2022/08/27 03:40:51;;;;;;;34.40;22.70;;;19.90;99.90;;;;;;5116250;28;20796;-74
2022/08/27 03:43:21;;;;;;;35.27;23.77;;;19.90;99.90;;;;;;5115829;28;20455;-73
2022/08/27 03:45:49;;;;;;;36.00;22.63;;;20.00;99.90;;;;;;5116039;28;20458;-73
2022/08/27 03:48:17;;;;;;;46.13;24.10;;;19.90;99.90;;;;;;5115754;28;20475;-73
2022/08/27 03:50:46;;;;;;;38.07;24.80;;;19.90;99.90;;;;;;5115888;28;20450;-75
2022/08/27 03:53:14;;;;;;;40.47;25.90;;;19.90;99.90;;;;;;5115912;28;20530;-74
2022/08/27 03:55:41;;;;;;;35.40;26.90;;;19.90;99.90;;;;;;5115972;28;20997;-74
2022/08/27 03:58:08;;;;;;;31.57;21.90;;;19.90;99.90;;;;;;5115868;28;20463;-74
2022/08/27 04:00:36;;;;;;;38.10;26.17;;;19.90;99.90;;;;;;5115452;28;21000;-73
2022/08/27 04:03:04;;;;;;;35.93;24.30;;;19.90;99.90;;;;;;5119176;28;20443;-73
2022/08/27 04:05:30;;;;;;;37.03;24.63;;;19.90;99.90;;;;;;5116129;28;20900;-74
2022/08/27 04:07:57;;;;;;;34.40;22.90;;;19.90;99.90;;;;;;5115540;27;20487;-74
2022/08/27 04:10:26;;;;;;;37.63;22.60;;;19.80;99.90;;;;;;5115564;28;20471;-74
2022/08/27 04:12:53;;;;;;;33.43;24.40;;;19.80;99.90;;;;;;5115602;28;20935;-74
2022/08/27 04:15:19;;;;;;;44.80;26.43;;;19.80;99.90;;;;;;5115386;28;20466;-73
2022/08/27 04:17:47;;;;;;;39.87;26.77;;;19.80;99.90;;;;;;5115379;28;20450;-73
2022/08/27 04:20:14;;;;;;;40.07;25.00;;;19.80;99.90;;;;;;5115110;28;20450;-74
2022/08/27 04:22:41;;;;;;;37.17;23.70;;;19.90;99.90;;;;;;5115383;28;20438;-74
2022/08/27 04:25:08;;;;;;;39.23;25.40;;;19.80;99.90;;;;;;5115579;28;20463;-73
2022/08/27 04:27:35;;;;;;;40.07;26.80;;;19.80;99.90;;;;;;5115253;28;20517;-73
2022/08/27 04:30:02;;;;;;;37.40;24.40;;;19.80;99.90;;;;;;5115195;27;20442;-73
2022/08/27 04:32:30;;;;;;;35.60;23.40;;;19.80;99.90;;;;;;5115094;28;20496;-73
2022/08/27 04:35:00;;;;;;;36.47;23.33;;;19.40;99.90;;;;;;5114623;28;20451;-73
2022/08/27 04:37:30;;;;;;;33.30;22.10;;;19.70;99.90;;;;;;5115071;28;20431;-73
2022/08/27 04:39:57;;;;;;;34.53;22.50;;;19.80;99.90;;;;;;5114785;28;20439;-74
2022/08/27 04:42:24;;;;;;;34.20;22.07;;;19.80;99.90;;;;;;5114907;28;20865;-74
2022/08/27 04:44:52;;;;;;;34.57;23.47;;;19.80;99.90;;;;;;5114777;28;20447;-75
2022/08/27 04:47:20;;;;;;;31.33;20.70;;;19.80;99.90;;;;;;5114564;28;20443;-74
2022/08/27 04:49:47;;;;;;;32.27;21.87;;;19.90;99.90;;;;;;5114867;28;20476;-74
2022/08/27 04:52:15;;;;;;;27.03;20.77;;;19.80;99.90;;;;;;5115584;28;20453;-74
2022/08/27 04:54:42;;;;;;;34.57;21.40;;;19.80;99.90;;;;;;5114717;28;20521;-74
2022/08/27 04:57:09;;;;;;;30.53;22.63;;;19.90;99.90;;;;;;5114656;28;20443;-75
2022/08/27 04:59:37;;;;;;;32.03;22.57;;;19.70;99.90;;;;;;5113832;28;20789;-75
2022/08/27 05:02:08;;;;;;;29.43;20.80;;;19.70;99.90;;;;;;5114571;28;20443;-75
2022/08/27 05:04:35;;;;;;;30.37;21.80;;;19.70;99.90;;;;;;5114708;28;20970;-74
2022/08/27 05:07:02;;;;;;;31.83;22.03;;;19.70;99.90;;;;;;5114583;28;20474;-74
2022/08/27 05:09:30;;;;;;;32.10;21.60;;;19.80;99.90;;;;;;5114484;28;20490;-75
2022/08/27 05:11:57;;;;;;;31.43;21.27;;;19.70;99.90;;;;;;5114697;28;20866;-75
2022/08/27 05:14:28;;;;;;;31.20;21.73;;;19.80;99.90;;;;;;5115417;28;20444;-74
2022/08/27 05:16:56;;;;;;;25.20;18.53;;;19.80;99.90;;;;;;5116726;28;20526;-74
2022/08/27 05:19:22;;;;;;;30.50;19.70;;;19.90;99.90;;;;;;5117459;28;20447;-74
2022/08/27 05:21:51;;;;;;;28.80;19.00;;;19.90;99.90;;;;;;5115868;28;20443;-74
2022/08/27 05:24:18;;;;;;;28.97;20.10;;;19.80;99.90;;;;;;5115117;28;20444;-74
2022/08/27 05:26:47;;;;;;;27.80;19.93;;;19.70;99.90;;;;;;5114079;28;20905;-74
2022/08/27 05:29:14;;;;;;;32.00;21.13;;;19.80;99.90;;;;;;5113749;28;20482;-75
2022/08/27 05:31:41;;;;;;;27.37;19.03;;;19.80;99.90;;;;;;5114188;28;20445;-74
2022/08/27 05:34:08;;;;;;;26.63;19.50;;;19.80;99.90;;;;;;5114057;28;20458;-74
2022/08/27 05:36:36;;;;;;;44.93;33.60;;;19.80;99.90;;;;;;5113835;28;20467;-74
2022/08/27 05:39:05;;;;;;;28.60;22.93;;;19.80;99.90;;;;;;5113898;28;20439;-74
2022/08/27 05:41:33;;;;;;;35.60;23.50;;;19.90;99.90;;;;;;5113805;28;20443;-74
2022/08/27 05:44:04;;;;;;;23.60;18.83;;;19.90;99.90;;;;;;5113659;28;20447;-74
2022/08/27 05:46:31;;;;;;;23.17;18.37;;;19.80;99.90;;;;;;5113867;28;20474;-74
2022/08/27 05:49:00;;;;;;;26.13;17.57;;;19.80;99.90;;;;;;5113659;28;20478;-74
2022/08/27 05:51:29;;;;;;;42.40;28.53;;;19.70;99.90;;;;;;5113579;28;20478;-74
2022/08/27 05:53:57;;;;;;;24.83;20.37;;;19.70;99.90;;;;;;5113677;28;20450;-74
2022/08/27 05:56:26;;;;;;;23.70;18.40;;;19.80;99.90;;;;;;5113059;28;20482;-73
2022/08/27 06:01:41;;;;;;;21.77;15.07;;;19.90;99.90;;;;;;5113628;28;20398;-74
2022/08/27 06:04:09;;;;;;;19.40;15.47;;;19.90;99.90;;;;;;5113632;28;20419;-74
2022/08/27 06:06:37;;;;;;;21.17;17.80;;;19.90;99.90;;;;;;5113589;28;20467;-75
2022/08/27 06:09:04;;;;;;;19.43;14.90;;;20.00;99.90;;;;;;5113182;28;20482;-75
2022/08/27 06:11:31;;;;;;;18.57;15.37;;;19.90;99.90;;;;;;5113077;28;20955;-74
2022/08/27 06:13:58;;;;;;;16.37;14.63;;;19.80;99.90;;;;;;5113487;28;20443;-74
2022/08/27 06:16:25;;;;;;;22.43;15.80;;;19.80;99.90;;;;;;5113432;28;20474;-75
2022/08/27 06:18:55;;;;;;;26.30;20.43;;;19.90;99.90;;;;;;5113465;28;20442;-75
2022/08/27 06:21:22;;;;;;;16.53;14.60;;;20.10;99.90;;;;;;5113491;28;20432;-74
2022/08/27 06:23:49;;;;;;;17.23;13.77;;;20.00;99.90;;;;;;5112838;28;20442;-75
2022/08/27 06:26:17;;;;;;;26.00;20.50;;;19.90;99.90;;;;;;5113212;28;20471;-75
2022/08/27 06:28:45;;;;;;;24.87;20.67;;;20.10;99.90;;;;;;5113478;28;20900;-74
2022/08/27 06:31:13;;;;;;;41.90;32.10;;;20.10;99.90;;;;;;5113443;28;20447;-75
2022/08/27 06:33:41;;;;;;;21.70;18.00;;;20.10;99.90;;;;;;5112897;28;20478;-75
2022/08/27 06:36:13;;;;;;;21.13;16.23;;;20.10;99.90;;;;;;5112756;28;20986;-74
2022/08/27 06:38:41;;;;;;;21.70;15.80;;;20.10;99.90;;;;;;5113587;28;20437;-74
2022/08/27 06:41:09;;;;;;;20.87;16.70;;;20.20;99.90;;;;;;5112989;28;20443;-74
2022/08/27 06:43:36;;;;;;;17.47;15.67;;;20.00;99.90;;;;;;5113056;28;20802;-75
2022/08/27 06:46:04;;;;;;;25.30;20.93;;;20.00;99.90;;;;;;5112639;28;21001;-75
2022/08/27 06:48:31;;;;;;;27.50;21.03;;;20.00;99.90;;;;;;5112987;28;20512;-74
2022/08/27 06:50:57;;;;;;;19.50;15.90;;;20.00;99.90;;;;;;5113728;28;20446;-75
2022/08/27 06:53:26;;;;;;;18.00;16.03;;;20.00;99.90;;;;;;5112956;28;20450;-74
2022/08/27 06:55:53;;;;;;;18.17;15.80;;;20.00;99.90;;;;;;5112748;28;20858;-74
2022/08/27 06:58:20;;;;;;;19.20;16.37;;;19.90;99.90;;;;;;5113244;28;20444;-76
2022/08/27 07:00:47;;;;;;;16.97;14.70;;;20.00;99.90;;;;;;5113200;28;20454;-75
2022/08/27 07:03:13;;;;;;;22.10;16.13;;;20.00;99.90;;;;;;5113316;28;20434;-74
2022/08/27 07:05:40;;;;;;;16.67;14.47;;;19.90;99.90;;;;;;5112327;28;20463;-74
2022/08/27 07:08:09;;;;;;;29.43;25.40;;;20.00;99.90;;;;;;5112434;28;20507;-73
2022/08/27 07:10:38;;;;;;;19.63;15.73;;;20.10;99.90;;;;;;5112567;28;20483;-75
2022/08/27 07:13:05;;;;;;;17.77;15.87;;;20.00;99.90;;;;;;5113095;28;20553;-74
2022/08/27 07:15:32;;;;;;;19.50;15.80;;;20.00;99.90;;;;;;5113589;28;20800;-74
2022/08/27 07:17:59;;;;;;;21.00;16.20;;;20.00;99.90;;;;;;5113335;28;20474;-75
2022/08/27 07:20:25;;;;;;;20.63;17.57;;;20.00;99.90;;;;;;5113301;28;20463;-74
2022/08/27 07:22:53;;;;;;;22.13;17.63;;;20.00;99.90;;;;;;5115609;28;20496;-74
2022/08/27 07:25:20;;;;;;;26.30;18.43;;;19.90;99.90;;;;;;5116793;28;20502;-74
2022/08/27 07:27:49;;;;;;;26.77;18.43;;;20.00;99.90;;;;;;5117033;28;20447;-74
2022/08/27 07:30:17;;;;;;;21.90;18.03;;;20.00;99.90;;;;;;5116192;28;20475;-74
2022/08/27 07:32:44;;;;;;;33.03;25.27;;;19.90;99.90;;;;;;5116019;28;20447;-74
2022/08/27 07:35:11;;;;;;;25.27;22.13;;;20.00;99.90;;;;;;5115792;27;21022;-74
2022/08/27 07:37:40;;;;;;;20.13;16.90;;;20.10;99.90;;;;;;5115591;28;20447;-73
2022/08/27 07:40:10;;;;;;;16.73;14.60;;;20.20;99.90;;;;;;5115587;28;20447;-75
2022/08/27 07:45:22;;;;;;;16.60;14.80;;;20.20;99.90;;;;;;5115819;28;21045;-74
2022/08/27 07:47:50;;;;;;;20.93;17.20;;;20.30;99.90;;;;;;5115963;28;20520;-75
2022/08/27 07:50:17;;;;;;;47.97;37.23;;;20.40;99.90;;;;;;5115459;28;20479;-73
2022/08/27 07:52:44;;;;;;;39.50;35.00;;;20.40;99.90;;;;;;5116017;28;20858;-75
2022/08/27 07:55:11;;;;;;;35.67;29.47;;;20.50;99.90;;;;;;5115245;28;20475;-76
2022/08/27 07:57:38;;;;;;;14.63;13.20;;;20.60;99.90;;;;;;5115709;28;20423;-73
2022/08/27 08:00:08;;;;;;;15.90;14.40;;;20.60;99.90;;;;;;5115987;28;20443;-74
2022/08/27 08:02:37;;;;;;;13.33;11.10;;;20.60;99.90;;;;;;5115489;28;20423;-72
2022/08/27 08:05:05;;;;;;;12.40;11.13;;;20.60;99.90;;;;;;5115539;28;20988;-73
2022/08/27 08:07:32;;;;;;;16.40;14.67;;;20.50;99.90;;;;;;5115759;28;20786;-73
2022/08/27 08:09:58;;;;;;;19.50;13.77;;;20.40;99.90;;;;;;5115624;27;20880;-73
2022/08/27 08:12:25;;;;;;;13.70;12.30;;;20.50;99.90;;;;;;5116458;28;20439;-73
2022/08/27 08:14:56;;;;;;;31.73;27.83;;;20.70;99.90;;;;;;5115519;28;20825;-74
2022/08/27 08:17:23;;;;;;;15.10;13.50;;;20.40;99.90;;;;;;5115597;28;20455;-74
2022/08/27 08:19:52;;;;;;;15.13;13.23;;;20.40;99.90;;;;;;5115340;28;20442;-73
2022/08/27 08:22:19;;;;;;;18.57;16.13;;;20.30;99.90;;;;;;5115928;28;20451;-73
2022/08/27 08:24:46;;;;;;;16.37;14.77;;;20.40;99.90;;;;;;5114914;28;20446;-73
2022/08/27 08:27:12;;;;;;;13.60;11.57;;;20.40;99.90;;;;;;5115136;28;20443;-74
2022/08/27 08:29:39;;;;;;;20.17;17.43;;;20.60;99.90;;;;;;5115280;28;20504;-73
2022/08/27 08:32:07;;;;;;;27.80;20.10;;;20.70;99.90;;;;;;5114931;28;20443;-73
2022/08/27 08:34:35;;;;;;;39.63;30.47;;;20.70;99.90;;;;;;5114380;27;20443;-75
2022/08/27 08:37:04;;;;;;;13.27;11.93;;;20.70;99.90;;;;;;5115243;28;20970;-74
2022/08/27 08:39:32;;;;;;;12.23;11.03;;;20.60;99.90;;;;;;5115135;28;20550;-74
2022/08/27 08:42:00;;;;;;;12.33;11.03;;;20.60;99.90;;;;;;5114932;28;20443;-73
2022/08/27 08:44:31;;;;;;;16.13;14.50;;;20.80;99.90;;;;;;5114695;27;20431;-74
2022/08/27 08:47:02;;;;;;;15.27;12.80;;;20.70;99.90;;;;;;5114905;28;20470;-73
2022/08/27 08:49:38;;;;;;;18.43;16.53;;;20.80;99.90;;;;;;5114806;28;20554;-73
2022/08/27 08:52:17;;;;;;;23.40;18.73;;;20.70;99.90;;;;;;5114778;28;20919;-75
2022/08/27 08:54:44;;;;;;;14.70;11.70;;;20.90;99.90;;;;;;5115149;28;20436;-74
2022/08/27 08:57:20;;;;;;;14.33;11.60;;;20.90;99.90;;;;;;5114766;28;20519;-74
2022/08/27 08:59:54;;;;;;;21.73;19.37;;;20.70;99.90;;;;;;5114898;28;20427;-75
2022/08/27 09:02:20;;;;;;;13.10;11.80;;;20.80;99.90;;;;;;5114811;28;20484;-73
2022/08/27 09:04:47;;;;;;;13.63;12.23;;;20.80;99.90;;;;;;5114945;28;20465;-74
2022/08/27 09:07:33;;;;;;;12.67;11.47;;;20.60;99.90;;;;;;5114637;28;20443;-74
2022/08/27 09:10:07;;;;;;;14.60;11.93;;;20.80;99.90;;;;;;5114758;28;20467;-74
2022/08/27 09:12:34;;;;;;;24.70;20.60;;;20.90;99.90;;;;;;5114391;27;20856;-73
2022/08/27 09:15:05;;;;;;;16.40;14.70;;;20.80;99.90;;;;;;5114662;28;21010;-73
2022/08/27 09:17:32;;;;;;;17.57;15.77;;;21.00;99.90;;;;;;5114290;28;20431;-74
2022/08/27 09:19:59;;;;;;;15.00;13.60;;;21.00;99.90;;;;;;5113920;28;20542;-74
2022/08/27 09:22:38;;;;;;;17.17;14.03;;;21.00;99.90;;;;;;5114522;28;20443;-74
2022/08/27 09:25:10;;;;;;;14.43;12.53;;;20.90;99.90;;;;;;5114394;28;20477;-75
2022/08/27 09:27:41;;;;;;;56.07;43.67;;;20.70;99.90;;;;;;5114625;28;20434;-75
2022/08/27 09:30:10;;;;;;;17.70;15.97;;;20.70;99.90;;;;;;5114274;28;20459;-75
2022/08/27 09:32:38;;;;;;;15.30;13.73;;;20.70;99.90;;;;;;5114152;28;20442;-74
2022/08/27 09:35:08;;;;;;;19.27;16.40;;;20.70;99.90;;;;;;5114944;28;20494;-77
2022/08/27 09:37:42;;;;;;;13.47;12.10;;;20.80;99.90;;;;;;5114504;28;20454;-73
2022/08/27 09:40:16;;;;;;;14.83;12.23;;;20.90;99.90;;;;;;5114190;28;20428;-74
2022/08/27 09:42:47;;;;;;;14.57;12.93;;;21.00;99.90;;;;;;5114177;28;20434;-73
2022/08/27 09:45:17;;;;;;;14.47;11.53;;;21.00;99.90;;;;;;5113303;28;20523;-74
2022/08/27 09:47:46;;;;;;;12.33;11.20;;;21.10;99.90;;;;;;5114038;28;20427;-74
2022/08/27 09:50:15;;;;;;;13.20;11.90;;;20.90;99.90;;;;;;5113949;28;20475;-74
2022/08/27 09:52:52;;;;;;;12.77;11.50;;;20.90;99.90;;;;;;5114132;28;20442;-73
2022/08/27 09:55:27;;;;;;;12.50;11.17;;;21.10;99.90;;;;;;5114029;28;20486;-74
2022/08/27 09:57:54;;;;;;;12.53;10.63;;;21.10;99.90;;;;;;5118530;22;20487;-74
2022/08/27 10:00:32;;;;;;;13.17;11.80;;;21.20;99.90;;;;;;5093839;28;20558;-74
2022/08/27 10:03:01;;;;;;;10.60;9.60;;;21.30;99.90;;;;;;5093412;28;20428;-74
2022/08/27 10:05:31;;;;;;;15.33;11.47;;;21.40;99.90;;;;;;5093561;28;20551;-74
2022/08/27 10:08:01;;;;;;;14.10;11.40;;;21.50;99.90;;;;;;5093766;28;20490;-74
2022/08/27 10:10:39;;;;;;;11.37;10.23;;;21.50;99.90;;;;;;5099090;28;20464;-73
2022/08/27 10:13:10;;;;;;;11.27;9.57;;;21.50;99.90;;;;;;5103034;28;20432;-74
2022/08/27 10:15:45;;;;;;;13.60;12.33;;;21.50;99.90;;;;;;5101993;28;20463;-72
2022/08/27 10:18:25;;;;;;;12.33;10.10;;;21.60;99.90;;;;;;5098199;28;20903;-86
2022/08/27 10:21:02;;;;;;;12.40;11.10;;;21.40;99.90;;;;;;5094656;28;20435;-76
2022/08/27 10:23:39;;;;;;;11.60;10.50;;;21.40;99.90;;;;;;5095137;28;20519;-76
2022/08/27 10:26:12;;;;;;;11.93;10.00;;;21.50;99.90;;;;;;5145653;22;20464;-81
2022/08/27 10:28:49;;;;;;;10.80;9.70;;;21.80;99.90;;;;;;5095138;28;20456;-77
2022/08/27 10:31:25;;;;;;;11.00;10.00;;;21.60;99.90;;;;;;5094296;28;21009;-77
2022/08/27 10:34:03;;;;;;;11.37;10.23;;;21.70;99.90;;;;;;5094617;28;20432;-76
2022/08/27 10:36:43;;;;;;;14.53;10.47;;;21.70;99.90;;;;;;5093911;28;21010;-77
2022/08/27 10:39:19;;;;;;;10.47;9.50;;;21.70;99.90;;;;;;5093275;28;20442;-76
2022/08/27 10:41:51;;;;;;;11.00;10.00;;;21.80;99.90;;;;;;5093644;28;20428;-76
2022/08/27 10:44:31;;;;;;;11.53;10.33;;;21.70;99.90;;;;;;5093913;28;20432;-78
2022/08/27 10:47:08;;;;;;;11.93;10.10;;;21.70;99.90;;;;;;5093751;28;20474;-78
2022/08/27 10:49:44;;;;;;;10.27;9.27;;;21.70;99.90;;;;;;5096996;28;20428;-78
2022/08/27 10:52:17;;;;;;;13.73;12.07;;;21.70;99.90;;;;;;5093950;28;20514;-77
2022/08/27 10:54:52;;;;;;;12.17;10.97;;;21.70;99.90;;;;;;5093590;28;20428;-77
2022/08/27 10:57:26;;;;;;;10.50;9.37;;;21.70;99.90;;;;;;5096693;28;20462;-77
2022/08/27 11:00:00;;;;;;;12.43;11.13;;;21.80;99.90;;;;;;5098069;28;20451;-77
2022/08/27 11:02:34;;;;;;;11.03;9.90;;;21.70;99.90;;;;;;5097270;28;20489;-78
2022/08/27 11:05:06;;;;;;;11.70;10.50;;;21.70;99.90;;;;;;5097442;28;20849;-77
2022/08/27 11:07:38;;;;;;;11.37;10.27;;;21.70;99.90;;;;;;5096732;28;20983;-76
2022/08/27 11:10:13;;;;;;;25.83;22.13;;;21.80;99.90;;;;;;5097463;28;20475;-77
2022/08/27 11:12:43;;;;;;;17.87;15.30;;;21.80;99.90;;;;;;5096739;28;20427;-75
2022/08/27 11:15:13;;;;;;;13.17;11.87;;;21.50;99.90;;;;;;5096794;28;20443;-76
2022/08/27 11:17:45;;;;;;;16.33;14.63;;;21.70;99.90;;;;;;5096791;28;20463;-77
2022/08/27 11:20:16;;;;;;;12.07;10.63;;;21.80;99.90;;;;;;5096781;28;20420;-77
2022/08/27 11:22:47;;;;;;;12.20;11.03;;;21.70;99.90;;;;;;5096883;28;20439;-78
2022/08/27 11:25:30;;;;;;;11.07;9.80;;;21.70;99.90;;;;;;5096821;28;20854;-76
2022/08/27 11:27:59;;;;;;;35.13;27.93;;;21.60;99.90;;;;;;5096567;28;20524;-76
2022/08/27 11:30:31;;;;;;;11.30;10.30;;;21.80;99.90;;;;;;5096169;28;20483;-76
2022/08/27 11:33:05;;;;;;;10.33;9.50;;;21.80;99.90;;;;;;5096155;28;20439;-76
2022/08/27 11:35:42;;;;;;;9.00;8.20;;;21.90;99.90;;;;;;5096385;28;20481;-77
2022/08/27 11:38:38;;;;;;;10.47;9.47;;;21.90;99.90;;;;;;5098654;28;20470;-76
2022/08/27 11:41:25;;;;;;;10.20;9.23;;;22.10;99.90;;;;;;5096852;28;20435;-77
2022/08/27 11:43:53;;;;;;;9.47;8.57;;;22.20;99.90;;;;;;5096709;28;20416;-76
2022/08/27 11:46:23;;;;;;;10.27;9.27;;;22.30;99.90;;;;;;5095988;28;20830;-76
2022/08/27 11:48:57;;;;;;;11.90;9.83;;;22.30;99.90;;;;;;5096120;28;20912;-77
2022/08/27 11:51:31;;;;;;;10.67;9.60;;;22.30;99.90;;;;;;5096045;28;20985;-76
2022/08/27 11:54:01;;;;;;;9.20;8.40;;;22.60;99.90;;;;;;5096816;28;20436;-77
2022/08/27 11:56:47;;;;;;;10.23;9.33;;;22.30;99.90;;;;;;5097011;28;20468;-77
2022/08/27 11:59:28;;;;;;;9.40;8.60;;;22.30;99.90;;;;;;5096126;28;20439;-77
2022/08/27 12:01:59;;;;;;;9.07;8.23;;;22.30;99.90;;;;;;5097155;28;20436;-78
2022/08/27 12:04:37;;;;;;;9.37;8.57;;;22.30;99.90;;;;;;5103259;28;20438;-76
2022/08/27 12:07:23;;;;;;;8.53;7.73;;;22.30;99.90;;;;;;5095391;28;20546;-76
2022/08/27 12:10:01;;;;;;;9.60;8.70;;;22.20;99.90;;;;;;5097860;28;20455;-78
2022/08/27 12:12:38;;;;;;;11.37;8.13;;;22.30;99.90;;;;;;5096133;28;20436;-78
2022/08/27 12:15:11;;;;;;;9.23;7.50;;;22.30;99.90;;;;;;5097728;28;20450;-77
2022/08/27 12:17:44;;;;;;;9.10;7.43;;;22.30;99.90;;;;;;5095515;28;20464;-77
2022/08/27 12:20:22;;;;;;;8.20;7.50;;;22.90;99.90;;;;;;5095601;28;20436;-76
2022/08/27 12:25:56;;;;;;;8.80;7.97;;;23.00;99.90;;;;;;5096035;28;20419;-73
2022/08/27 12:28:26;;;;;;;8.10;7.47;;;22.60;99.90;;;;;;5095638;28;20786;-79
2022/08/27 12:30:54;;;;;;;7.37;6.80;;;22.70;99.90;;;;;;5096220;28;20866;-77
2022/08/27 12:33:30;;;;;;;7.90;7.17;;;22.70;99.90;;;;;;5097096;28;20815;-78
2022/08/27 12:36:06;;;;;;;9.03;6.57;;;23.00;99.90;;;;;;5098159;28;20440;-75
2022/08/27 12:38:42;;;;;;;7.40;6.80;;;23.00;99.90;;;;;;5096160;28;20534;-78
2022/08/27 12:41:10;;;;;;;7.43;6.83;;;23.20;99.90;;;;;;5096047;28;20489;-77
2022/08/27 12:43:42;;;;;;;13.03;8.10;;;23.30;99.90;;;;;;5100082;28;21039;-78
2022/08/27 12:46:14;;;;;;;9.07;8.00;;;23.30;99.90;;;;;;5097580;28;20459;-76
2022/08/27 12:48:44;;;;;;;8.67;7.97;;;23.20;99.90;;;;;;5095534;28;20428;-74